Time;durP1;ratioP1;P1;durP2;ratioP2;P2;SDS_P1;SDS_P2;PMS_P1;PMS_P2;Temp;Humidity;BMP_temperature;BMP_pressure;BME280_temperature;BME280_humidity;BME280_pressure;Samples;Min_cycle;Max_cycle;Signal;HPM_P1;HPM_P2
2021/03/01 00:00:41;;;;;;;18.45;10.65;;;0.00;99.90;;;;;;5015688;28;20033;-71
2021/03/01 00:03:07;;;;;;;19.00;11.35;;;0.00;99.90;;;;;;5016233;28;20095;-71
2021/03/01 00:05:34;;;;;;;18.95;11.10;;;0.00;99.90;;;;;;5015568;28;20024;-72
2021/03/01 00:07:59;;;;;;;21.85;10.88;;;0.00;99.90;;;;;;5016593;28;20500;-71
2021/03/01 00:10:25;;;;;;;31.00;12.30;;;0.00;99.90;;;;;;5015397;28;20037;-71
2021/03/01 00:12:52;;;;;;;19.77;11.73;;;0.00;99.90;;;;;;5014261;28;20360;-71
2021/03/01 00:15:20;;;;;;;19.27;10.40;;;-0.10;99.90;;;;;;5015294;28;20030;-72
2021/03/01 00:17:46;;;;;;;24.23;12.02;;;-0.10;99.90;;;;;;5015795;28;20036;-72
2021/03/01 00:20:14;;;;;;;20.15;11.63;;;-0.10;99.90;;;;;;5014634;28;20030;-70
2021/03/01 00:22:41;;;;;;;25.90;11.18;;;-0.20;99.90;;;;;;5014298;28;20018;-71
2021/03/01 00:25:07;;;;;;;21.27;11.23;;;-0.10;99.90;;;;;;5015764;28;20488;-72
2021/03/01 00:27:33;;;;;;;19.95;11.50;;;-0.20;99.90;;;;;;5015750;28;20018;-71
2021/03/01 00:29:59;;;;;;;24.23;12.10;;;-0.20;99.90;;;;;;5014491;28;20380;-72
2021/03/01 00:32:25;;;;;;;19.98;12.05;;;-0.20;99.90;;;;;;5015167;28;20038;-71
2021/03/01 00:34:50;;;;;;;23.00;11.60;;;-0.30;99.90;;;;;;5012974;28;20477;-73
2021/03/01 00:37:16;;;;;;;23.13;11.52;;;-0.30;99.90;;;;;;5018020;28;20036;-70
2021/03/01 00:39:42;;;;;;;23.45;12.60;;;-0.30;99.90;;;;;;5021280;28;20034;-72
2021/03/01 00:42:07;;;;;;;24.38;12.02;;;-0.40;99.90;;;;;;5017362;28;20380;-72
2021/03/01 00:44:33;;;;;;;27.35;12.98;;;-0.40;99.90;;;;;;5014048;28;20030;-72
2021/03/01 00:46:59;;;;;;;30.05;11.40;;;-0.40;99.90;;;;;;5014619;28;20030;-71
2021/03/01 00:49:24;;;;;;;20.98;11.13;;;-0.40;99.90;;;;;;5013677;28;20048;-71
2021/03/01 00:51:50;;;;;;;21.40;12.13;;;-0.40;99.90;;;;;;5014495;28;20026;-71
2021/03/01 00:54:16;;;;;;;24.65;12.35;;;-0.40;99.90;;;;;;5013102;28;20030;-72
2021/03/01 00:56:41;;;;;;;23.65;12.13;;;-0.40;99.90;;;;;;5014514;28;20022;-71
2021/03/01 00:59:07;;;;;;;21.15;11.60;;;-0.50;99.90;;;;;;5015063;28;20029;-72
2021/03/01 01:01:33;;;;;;;22.38;11.32;;;-0.40;99.90;;;;;;5015223;28;20104;-71
2021/03/01 01:03:59;;;;;;;28.98;12.05;;;-0.50;99.90;;;;;;5013916;28;20480;-71
2021/03/01 01:06:24;;;;;;;20.63;11.52;;;-0.60;99.90;;;;;;5015059;28;20025;-73
2021/03/01 01:08:50;;;;;;;24.02;11.77;;;-0.60;99.90;;;;;;5023762;28;20116;-71
2021/03/01 01:11:16;;;;;;;24.70;11.82;;;-0.60;99.90;;;;;;5019871;28;20090;-71
2021/03/01 01:13:42;;;;;;;22.88;12.00;;;-0.60;99.90;;;;;;5013971;28;20026;-70
2021/03/01 01:16:09;;;;;;;21.75;12.23;;;-0.70;99.90;;;;;;5023036;28;20034;-70
2021/03/01 01:18:34;;;;;;;21.17;11.95;;;-0.70;99.90;;;;;;5021281;28;20033;-70
2021/03/01 01:21:00;;;;;;;21.58;11.48;;;-0.70;99.90;;;;;;5015967;28;20084;-72
2021/03/01 01:23:26;;;;;;;24.77;12.27;;;-0.70;99.90;;;;;;5017303;28;20052;-71
2021/03/01 01:25:51;;;;;;;22.92;12.05;;;-0.70;99.90;;;;;;5016606;28;20084;-72
2021/03/01 01:28:17;;;;;;;19.80;11.20;;;-0.70;99.90;;;;;;5016788;28;20034;-71
2021/03/01 01:30:43;;;;;;;24.65;12.07;;;-0.70;99.90;;;;;;5018065;28;20056;-71
2021/03/01 01:33:08;;;;;;;24.45;12.20;;;-0.70;99.90;;;;;;5017486;28;20026;-71
2021/03/01 01:35:34;;;;;;;23.48;12.35;;;-0.90;99.90;;;;;;5017231;28;20489;-71
2021/03/01 01:38:00;;;;;;;22.05;11.68;;;-0.80;99.90;;;;;;5017504;28;20099;-71
2021/03/01 01:40:25;;;;;;;21.35;12.05;;;-0.80;99.90;;;;;;5016097;28;20469;-73
2021/03/01 01:42:52;;;;;;;21.77;12.20;;;-0.90;99.90;;;;;;5017236;28;20075;-73
2021/03/01 01:45:21;;;;;;;22.88;12.30;;;-0.90;99.90;;;;;;5017646;28;20091;-72
2021/03/01 01:47:49;;;;;;;22.33;11.88;;;-0.90;99.90;;;;;;5017784;28;20021;-72
2021/03/01 01:50:16;;;;;;;24.27;13.40;;;-0.90;99.90;;;;;;5017452;28;20022;-73
2021/03/01 01:52:42;;;;;;;21.23;11.60;;;-0.90;99.90;;;;;;5017032;28;20400;-74
2021/03/01 01:55:09;;;;;;;21.75;12.10;;;-0.90;99.90;;;;;;5017448;28;20026;-70
2021/03/01 01:57:36;;;;;;;21.05;11.40;;;-1.00;99.90;;;;;;5017660;28;20397;-71
2021/03/01 02:00:10;;;;;;;27.90;12.07;;;-1.00;99.90;;;;;;5017377;28;20105;-71
2021/03/01 02:02:37;;;;;;;25.73;12.90;;;-1.00;99.90;;;;;;5016819;28;20026;-71
2021/03/01 02:05:05;;;;;;;26.27;13.43;;;-1.10;99.90;;;;;;5017211;28;20365;-71
2021/03/01 02:07:52;;;;;;;23.13;12.02;;;-1.10;99.90;;;;;;5017254;28;20076;-72
2021/03/01 02:10:43;;;;;;;23.25;11.90;;;-1.10;99.90;;;;;;5017076;28;20018;-71
2021/03/01 02:13:27;;;;;;;23.17;11.45;;;-1.10;99.90;;;;;;5015117;28;20578;-70
2021/03/01 02:15:54;;;;;;;20.73;11.35;;;-1.10;99.90;;;;;;5019429;28;20037;-72
2021/03/01 02:18:20;;;;;;;24.67;11.27;;;-1.20;99.90;;;;;;5019429;28;20077;-72
2021/03/01 02:20:46;;;;;;;26.67;12.63;;;-1.20;99.90;;;;;;5020813;28;20065;-72
2021/03/01 02:23:14;;;;;;;25.75;12.65;;;-1.10;99.90;;;;;;5021156;28;20026;-71
2021/03/01 02:25:59;;;;;;;24.33;11.15;;;-1.20;99.90;;;;;;5020037;28;20406;-71
2021/03/01 02:28:29;;;;;;;24.05;11.93;;;-1.30;99.90;;;;;;5014114;28;20022;-72
2021/03/01 02:31:00;;;;;;;20.38;10.15;;;-1.20;99.90;;;;;;5015857;28;20026;-73
2021/03/01 02:33:32;;;;;;;18.98;11.18;;;-1.20;99.90;;;;;;5015169;28;20041;-71
2021/03/01 02:35:59;;;;;;;;;;;-1.30;99.90;;;;;;5015803;28;20493;-71
2021/03/01 02:38:29;;;;;;;22.13;11.38;;;-1.30;99.90;;;;;;5015861;28;19911;-72
2021/03/01 02:40:58;;;;;;;23.92;11.57;;;-1.30;99.90;;;;;;5015055;28;20025;-73
2021/03/01 02:43:26;;;;;;;21.15;11.45;;;-1.30;99.90;;;;;;5014752;28;20054;-73
2021/03/01 02:45:52;;;;;;;22.55;11.73;;;-1.40;99.90;;;;;;5015082;28;20028;-72
2021/03/01 02:48:20;;;;;;;21.30;11.43;;;-1.40;99.90;;;;;;5015358;28;20021;-71
2021/03/01 02:50:46;;;;;;;21.90;11.50;;;-1.50;99.90;;;;;;5014804;28;20097;-72
2021/03/01 02:53:14;;;;;;;21.67;11.48;;;-1.50;99.90;;;;;;5013672;28;20381;-72
2021/03/01 02:55:43;;;;;;;22.95;12.35;;;-1.50;99.90;;;;;;5014590;28;20101;-72
2021/03/01 02:58:13;;;;;;;22.00;11.82;;;-1.50;99.90;;;;;;5015193;28;20022;-71
2021/03/01 03:00:40;;;;;;;29.20;12.60;;;-1.50;99.90;;;;;;5014858;28;20022;-72
2021/03/01 03:03:08;;;;;;;27.25;12.60;;;-1.50;99.90;;;;;;5014006;28;20037;-71
2021/03/01 03:05:36;;;;;;;22.90;11.05;;;-1.50;99.90;;;;;;5014359;28;20026;-73
2021/03/01 03:08:02;;;;;;;24.65;12.30;;;-1.50;99.90;;;;;;5014894;28;20444;-73
2021/03/01 03:10:29;;;;;;;24.33;11.60;;;-1.50;99.90;;;;;;5014355;28;20022;-72
2021/03/01 03:12:56;;;;;;;28.80;12.88;;;-1.60;99.90;;;;;;5012674;28;20026;-70
2021/03/01 03:15:25;;;;;;;25.20;11.98;;;-1.50;99.90;;;;;;5014528;28;20037;-71
2021/03/01 03:17:52;;;;;;;21.38;12.25;;;-1.60;99.90;;;;;;5014195;28;20028;-73
2021/03/01 03:20:18;;;;;;;21.98;11.40;;;-1.60;99.90;;;;;;5014865;28;20571;-72
2021/03/01 03:22:44;;;;;;;21.00;11.95;;;-1.60;99.90;;;;;;5014248;28;20084;-72
2021/03/01 03:25:11;;;;;;;23.92;12.18;;;-1.60;99.90;;;;;;5013940;28;20030;-73
2021/03/01 03:27:37;;;;;;;22.00;11.77;;;-1.60;99.90;;;;;;5014585;28;20413;-71
2021/03/01 03:30:12;;;;;;;20.77;11.50;;;-1.70;99.90;;;;;;5014188;28;20473;-73
2021/03/01 03:32:38;;;;;;;24.92;11.88;;;-1.70;99.90;;;;;;5012677;28;20037;-73
2021/03/01 03:35:07;;;;;;;25.52;12.27;;;-1.70;99.90;;;;;;5014124;28;20449;-73
2021/03/01 03:37:58;;;;;;;21.98;12.00;;;-1.70;99.90;;;;;;5014371;28;20079;-73
2021/03/01 03:40:26;;;;;;;26.42;12.23;;;-1.70;99.90;;;;;;5013219;28;20580;-73
2021/03/01 03:42:53;;;;;;;22.35;12.45;;;-1.70;99.90;;;;;;5013656;28;20103;-71
2021/03/01 03:45:20;;;;;;;19.38;11.60;;;-1.70;99.90;;;;;;5013766;28;20030;-73
2021/03/01 03:47:51;;;;;;;23.50;11.85;;;-1.80;99.90;;;;;;5013821;28;20587;-72
2021/03/01 03:50:20;;;;;;;19.60;8.52;;;-1.80;99.90;;;;;;5014228;28;20022;-71
2021/03/01 03:52:49;;;;;;;22.92;11.50;;;-1.80;99.90;;;;;;5013498;28;20044;-72
2021/03/01 03:55:19;;;;;;;21.95;11.75;;;-1.90;99.90;;;;;;5013304;28;20026;-71
2021/03/01 03:58:00;;;;;;;24.83;11.85;;;-1.90;99.90;;;;;;5013974;28;20033;-72
2021/03/01 04:00:29;;;;;;;25.77;12.85;;;-1.90;99.90;;;;;;5011938;28;20030;-71
2021/03/01 04:02:58;;;;;;;21.65;12.18;;;-2.00;99.90;;;;;;5013001;28;20092;-71
2021/03/01 04:05:26;;;;;;;23.02;11.52;;;-1.90;99.90;;;;;;5013548;28;20113;-72
2021/03/01 04:07:53;;;;;;;24.58;12.10;;;-1.90;99.90;;;;;;5013860;28;20109;-71
2021/03/01 04:10:20;;;;;;;27.02;12.73;;;-1.90;99.90;;;;;;5013627;28;20028;-71
2021/03/01 04:12:50;;;;;;;30.77;14.15;;;-1.90;99.90;;;;;;5012878;28;20022;-72
2021/03/01 04:15:17;;;;;;;30.20;13.82;;;-2.00;99.90;;;;;;5013255;28;20113;-73
2021/03/01 04:17:44;;;;;;;24.67;13.23;;;-2.00;99.90;;;;;;5013669;28;20460;-73
2021/03/01 04:20:11;;;;;;;22.48;12.63;;;-2.00;99.90;;;;;;5013541;28;20481;-73
2021/03/01 04:22:39;;;;;;;22.92;13.20;;;-2.10;99.90;;;;;;5013372;28;20025;-73
2021/03/01 04:25:07;;;;;;;23.35;12.07;;;-2.10;99.90;;;;;;5013213;28;20037;-71
2021/03/01 04:27:37;;;;;;;30.35;13.77;;;-2.10;99.90;;;;;;5010852;28;20025;-71
2021/03/01 04:30:08;;;;;;;27.02;13.05;;;-2.10;99.90;;;;;;4992623;28;20022;-70
2021/03/01 04:32:41;;;;;;;25.05;12.77;;;-2.20;99.90;;;;;;4993857;28;20064;-71
2021/03/01 04:35:08;;;;;;;25.50;13.52;;;-2.20;99.90;;;;;;4994791;28;20044;-70
2021/03/01 04:37:34;;;;;;;24.90;13.82;;;-2.20;99.90;;;;;;4994821;28;20030;-71
2021/03/01 04:40:00;;;;;;;23.00;12.82;;;-2.20;99.90;;;;;;5003742;28;20142;-71
2021/03/01 04:42:28;;;;;;;25.77;12.80;;;-2.20;99.90;;;;;;5014624;28;20040;-71
2021/03/01 04:44:56;;;;;;;23.35;12.55;;;-2.20;99.90;;;;;;5013599;28;20560;-72
2021/03/01 04:47:24;;;;;;;22.05;12.65;;;-2.30;99.90;;;;;;5023833;28;20030;-72
2021/03/01 04:49:50;;;;;;;25.70;12.73;;;-2.30;99.90;;;;;;5028817;28;20018;-72
2021/03/01 04:52:17;;;;;;;28.15;13.38;;;-2.30;99.90;;;;;;5027818;28;20049;-73
2021/03/01 04:54:43;;;;;;;25.88;12.90;;;-2.20;99.90;;;;;;5014376;28;20095;-72
2021/03/01 04:57:12;;;;;;;26.75;12.63;;;-2.30;99.90;;;;;;5016107;28;20030;-72
2021/03/01 04:59:37;;;;;;;27.60;13.07;;;-2.30;99.90;;;;;;5013812;28;20424;-71
2021/03/01 05:02:04;;;;;;;29.23;13.35;;;-2.40;99.90;;;;;;5012760;28;20026;-71
2021/03/01 05:04:30;;;;;;;26.98;13.75;;;-2.40;99.90;;;;;;5012296;28;20069;-72
2021/03/01 05:06:57;;;;;;;26.48;12.70;;;-2.40;99.90;;;;;;5012888;28;20380;-71
2021/03/01 05:09:23;;;;;;;26.85;13.35;;;-2.40;99.90;;;;;;5013305;28;20061;-71
2021/03/01 05:11:49;;;;;;;28.38;14.57;;;-2.60;99.90;;;;;;5012410;28;20018;-72
2021/03/01 05:14:15;;;;;;;28.83;13.48;;;-2.50;99.90;;;;;;5012085;28;20088;-70
2021/03/01 05:16:40;;;;;;;26.17;14.02;;;-2.60;99.90;;;;;;5012524;28;20029;-73
2021/03/01 05:19:06;;;;;;;26.40;13.45;;;-2.60;99.90;;;;;;5012623;28;20085;-72
2021/03/01 05:21:32;;;;;;;30.90;13.57;;;-2.60;99.90;;;;;;5014764;28;20025;-73
2021/03/01 05:23:58;;;;;;;26.88;14.75;;;-2.60;99.90;;;;;;5014514;28;20026;-73
2021/03/01 05:26:24;;;;;;;29.10;14.27;;;-2.60;99.90;;;;;;5021577;28;20070;-69
2021/03/01 05:28:50;;;;;;;29.08;13.95;;;-2.50;99.90;;;;;;5024078;28;20030;-72
2021/03/01 05:31:16;;;;;;;26.33;14.02;;;-2.60;99.90;;;;;;5013418;28;20225;-72
2021/03/01 05:33:42;;;;;;;30.60;14.32;;;-2.60;99.90;;;;;;5011763;28;20052;-73
2021/03/01 05:36:09;;;;;;;23.00;13.15;;;-2.60;99.90;;;;;;5011818;28;20555;-70
2021/03/01 05:38:35;;;;;;;29.25;13.88;;;-2.60;99.90;;;;;;5011204;28;20473;-72
2021/03/01 05:41:02;;;;;;;26.90;13.70;;;-2.60;99.90;;;;;;5010232;28;20476;-70
2021/03/01 05:43:29;;;;;;;32.22;14.38;;;-2.60;99.90;;;;;;4990990;28;20022;-74
2021/03/01 05:45:58;;;;;;;29.55;13.63;;;-2.60;99.90;;;;;;4991974;28;20430;-74
2021/03/01 05:48:26;;;;;;;25.75;14.18;;;-2.60;99.90;;;;;;4992438;28;20057;-71
2021/03/01 05:50:55;;;;;;;31.45;14.70;;;-2.60;99.90;;;;;;4992426;28;20029;-70
2021/03/01 05:53:25;;;;;;;27.63;13.95;;;-2.60;99.90;;;;;;4991471;28;20026;-71
2021/03/01 05:55:51;;;;;;;26.92;12.50;;;-2.60;99.90;;;;;;4992387;28;20026;-71
2021/03/01 05:58:18;;;;;;;28.17;14.13;;;-2.60;99.90;;;;;;4992344;28;20022;-70
2021/03/01 06:00:46;;;;;;;33.15;14.00;;;-2.60;99.90;;;;;;4992264;28;20019;-70
2021/03/01 06:03:13;;;;;;;29.15;14.73;;;-2.60;99.90;;;;;;4992313;28;20034;-69
2021/03/01 06:05:40;;;;;;;26.75;13.95;;;-2.60;99.90;;;;;;4995765;28;20038;-70
2021/03/01 06:08:06;;;;;;;23.30;13.23;;;-2.60;99.90;;;;;;4995976;28;20110;-70
2021/03/01 06:10:32;;;;;;;26.63;13.00;;;-2.60;99.90;;;;;;4995559;28;20027;-74
2021/03/01 06:12:58;;;;;;;32.30;14.70;;;-2.60;99.90;;;;;;4995508;28;20027;-69
2021/03/01 06:15:24;;;;;;;31.15;14.48;;;-2.60;99.90;;;;;;4996065;28;20039;-68
2021/03/01 06:18:09;;;;;;;31.35;15.00;;;-2.50;99.90;;;;;;4996639;28;20073;-69
2021/03/01 06:20:36;;;;;;;24.25;12.95;;;-2.30;99.90;;;;;;4978105;28;20055;-72
2021/03/01 06:23:03;;;;;;;26.30;12.52;;;-2.30;99.90;;;;;;4981030;28;20046;-72
2021/03/01 06:25:29;;;;;;;21.50;11.80;;;-2.20;99.90;;;;;;4981688;28;20067;-71
2021/03/01 06:27:57;;;;;;;24.42;12.43;;;-2.20;99.90;;;;;;4977417;28;20035;-71
2021/03/01 06:30:37;;;;;;;25.35;12.75;;;-2.20;99.90;;;;;;4977100;28;20126;-73
2021/03/01 06:33:05;;;;;;;20.40;11.05;;;-2.20;99.90;;;;;;4994487;28;20023;-73
2021/03/01 06:35:56;;;;;;;24.83;12.10;;;-2.20;99.90;;;;;;4995938;28;20129;-72
2021/03/01 06:38:29;;;;;;;27.88;12.75;;;-2.20;99.90;;;;;;4991666;28;20359;-78
2021/03/01 06:41:07;;;;;;;27.45;13.82;;;-2.30;99.90;;;;;;4995545;28;20022;-76
2021/03/01 06:43:33;;;;;;;30.75;14.18;;;-2.20;99.90;;;;;;4994386;28;20054;-74
2021/03/01 06:46:13;;;;;;;29.73;15.50;;;-2.10;99.90;;;;;;4995458;28;20027;-74
2021/03/01 06:48:40;;;;;;;33.55;15.77;;;-2.10;99.90;;;;;;5006779;28;20076;-73
2021/03/01 06:51:08;;;;;;;26.73;12.73;;;-2.10;99.90;;;;;;5018910;28;20223;-76
2021/03/01 06:53:34;;;;;;;25.05;13.75;;;-2.00;99.90;;;;;;5030111;28;20052;-78
2021/03/01 06:56:05;;;;;;;25.80;14.35;;;-2.00;99.90;;;;;;5017809;28;20034;-78
2021/03/01 06:58:36;;;;;;;28.23;14.77;;;-1.90;99.90;;;;;;5015399;28;20054;-74
2021/03/01 07:01:12;;;;;;;25.50;13.68;;;-1.90;99.90;;;;;;5015955;28;20037;-77
2021/03/01 07:03:40;;;;;;;24.52;13.65;;;-2.00;99.90;;;;;;5015983;28;20053;-75
2021/03/01 07:06:07;;;;;;;29.20;13.07;;;-1.90;99.90;;;;;;5012828;28;20029;-72
2021/03/01 07:08:37;;;;;;;28.13;14.23;;;-1.80;99.90;;;;;;5014660;28;20056;-72
2021/03/01 07:11:18;;;;;;;28.67;14.13;;;-1.70;99.90;;;;;;4992132;28;20018;-73
2021/03/01 07:13:44;;;;;;;26.60;14.27;;;-1.70;99.90;;;;;;4989546;28;20018;-74
2021/03/01 07:16:10;;;;;;;30.00;14.63;;;-1.60;99.90;;;;;;4987255;28;20046;-75
2021/03/01 07:18:37;;;;;;;30.92;14.73;;;-1.50;99.90;;;;;;4990382;28;20485;-75
2021/03/01 07:21:03;;;;;;;30.90;15.10;;;-1.50;99.90;;;;;;5010879;28;20497;-75
2021/03/01 07:23:30;;;;;;;34.50;16.52;;;-1.50;99.90;;;;;;5014765;28;20048;-76
2021/03/01 07:25:57;;;;;;;155.25;70.28;;;-1.30;99.90;;;;;;5012972;28;20056;-75
2021/03/01 07:28:23;;;;;;;36.33;18.75;;;-1.20;99.90;;;;;;5015420;28;20401;-74
2021/03/01 07:30:50;;;;;;;40.90;17.38;;;-1.00;99.90;;;;;;5013768;28;20065;-74
2021/03/01 07:33:16;;;;;;;28.27;15.48;;;-0.90;99.90;;;;;;4995916;28;20049;-75
2021/03/01 07:35:43;;;;;;;30.30;14.95;;;-0.60;99.90;;;;;;4996011;28;20485;-74
2021/03/01 07:38:09;;;;;;;27.90;15.43;;;-0.40;99.90;;;;;;4996439;28;20023;-74
2021/03/01 07:40:36;;;;;;;29.42;14.68;;;-0.30;99.90;;;;;;4995800;28;20171;-76
2021/03/01 07:43:03;;;;;;;28.70;14.30;;;-0.20;99.90;;;;;;4994018;28;20031;-74
2021/03/01 07:45:30;;;;;;;25.42;15.38;;;-0.20;99.90;;;;;;5014185;28;20121;-75
2021/03/01 07:48:00;;;;;;;24.60;14.40;;;-0.10;99.90;;;;;;5015531;28;20037;-74
2021/03/01 07:50:42;;;;;;;26.92;13.48;;;-0.10;99.90;;;;;;5015695;28;20101;-77
2021/03/01 07:53:43;;;;;;;28.20;15.63;;;0.00;99.90;;;;;;5015825;28;20017;-74
2021/03/01 07:56:24;;;;;;;30.95;14.77;;;0.20;99.90;;;;;;5015488;28;20045;-74
2021/03/01 07:59:03;;;;;;;28.77;16.70;;;0.20;99.90;;;;;;5015386;28;20451;-74
2021/03/01 08:01:30;;;;;;;29.25;15.18;;;0.30;99.90;;;;;;5015379;28;20105;-74
2021/03/01 08:03:57;;;;;;;31.30;15.50;;;0.50;99.90;;;;;;5013306;28;20084;-74
2021/03/01 08:06:23;;;;;;;20.70;13.95;;;0.70;99.90;;;;;;5015477;28;20025;-74
2021/03/01 08:08:50;;;;;;;24.42;14.43;;;0.80;99.90;;;;;;5005586;28;20080;-73
2021/03/01 08:11:39;;;;;;;26.80;13.43;;;1.10;99.90;;;;;;4996138;28;20105;-73
2021/03/01 08:14:12;;;;;;;26.75;14.32;;;1.20;99.90;;;;;;4989186;28;20038;-73
2021/03/01 08:16:38;;;;;;;25.05;13.68;;;1.40;99.90;;;;;;4994975;28;20030;-74
2021/03/01 08:19:04;;;;;;;21.98;13.68;;;1.60;99.90;;;;;;5009328;28;20037;-73
2021/03/01 08:22:02;;;;;;;22.17;12.27;;;1.80;99.90;;;;;;5015456;28;20065;-72
2021/03/01 08:24:52;;;;;;;21.88;12.45;;;2.20;99.90;;;;;;5005788;28;20034;-73
2021/03/01 08:27:26;;;;;;;18.20;11.50;;;4.50;99.90;;;;;;5014838;28;20029;-73
2021/03/01 08:30:24;;;;;;;15.60;11.38;;;7.50;99.90;;;;;;5014908;28;20026;-73
2021/03/01 08:33:08;;;;;;;16.00;11.27;;;10.50;95.40;;;;;;5013487;28;20033;-74
2021/03/01 08:36:00;;;;;;;17.33;12.75;;;12.60;85.70;;;;;;5014713;28;20030;-73
2021/03/01 08:38:41;;;;;;;13.87;11.27;;;14.70;72.70;;;;;;5014892;28;20030;-74
2021/03/01 08:41:07;;;;;;;11.38;9.80;;;15.80;65.20;;;;;;5014504;28;20041;-75
2021/03/01 08:43:42;;;;;;;13.57;10.38;;;15.30;63.00;;;;;;5014527;28;20706;-74
2021/03/01 08:46:16;;;;;;;13.77;10.82;;;15.60;58.60;;;;;;5014623;28;20030;-73
2021/03/01 08:48:47;;;;;;;13.20;9.73;;;12.90;64.80;;;;;;5015191;28;20022;-73
2021/03/01 08:51:15;;;;;;;13.68;10.55;;;13.50;65.20;;;;;;5015863;28;20090;-73
2021/03/01 08:53:41;;;;;;;13.85;10.82;;;13.10;68.20;;;;;;5014424;28;20030;-74
2021/03/01 08:56:19;;;;;;;13.27;10.43;;;15.80;60.50;;;;;;5016216;28;20026;-74
2021/03/01 08:58:45;;;;;;;11.90;10.30;;;17.50;56.20;;;;;;5013832;28;20120;-73
2021/03/01 09:01:11;;;;;;;16.05;11.15;;;17.40;55.00;;;;;;4996065;28;20061;-72
2021/03/01 09:03:41;;;;;;;14.15;11.27;;;17.50;55.10;;;;;;4996517;28;20086;-73
2021/03/01 09:06:19;;;;;;;12.93;10.48;;;18.40;52.50;;;;;;5015336;28;20022;-73
2021/03/01 09:08:48;;;;;;;12.30;10.40;;;20.50;49.40;;;;;;4996552;28;20026;-73
2021/03/01 09:11:15;;;;;;;15.02;9.93;;;21.20;46.70;;;;;;4995180;28;20383;-74
2021/03/01 09:13:43;;;;;;;14.07;10.07;;;21.20;45.20;;;;;;4993886;28;20058;-73
2021/03/01 09:16:25;;;;;;;13.00;9.48;;;19.40;47.60;;;;;;4995029;28;20035;-74
2021/03/01 09:19:18;;;;;;;13.00;10.52;;;19.00;49.00;;;;;;5008408;28;20126;-73
2021/03/01 09:21:43;;;;;;;15.70;10.27;;;20.30;47.60;;;;;;5016449;28;20037;-73
2021/03/01 09:24:13;;;;;;;15.20;9.30;;;20.70;46.80;;;;;;5014830;28;20034;-72
2021/03/01 09:26:42;;;;;;;14.32;9.95;;;21.20;44.90;;;;;;5014339;28;20133;-73
2021/03/01 09:29:13;;;;;;;13.60;10.25;;;21.30;45.30;;;;;;5003314;28;20026;-74
2021/03/01 09:31:43;;;;;;;16.73;10.95;;;21.70;45.00;;;;;;5014645;28;20048;-74
2021/03/01 09:34:10;;;;;;;17.65;10.80;;;21.20;45.00;;;;;;5014513;28;20084;-73
2021/03/01 09:36:36;;;;;;;14.63;9.88;;;21.30;45.50;;;;;;5014992;28;20032;-75
2021/03/01 09:39:06;;;;;;;13.90;10.25;;;21.70;44.00;;;;;;5016801;28;20022;-72
2021/03/01 09:41:38;;;;;;;10.50;9.40;;;22.50;43.50;;;;;;5018913;28;20093;-75
2021/03/01 09:44:08;;;;;;;14.38;10.35;;;21.00;44.20;;;;;;5017223;28;20022;-73
2021/03/01 09:46:34;;;;;;;12.93;10.10;;;21.00;44.80;;;;;;5018926;28;20022;-73
2021/03/01 09:49:09;;;;;;;17.58;10.55;;;21.70;44.50;;;;;;5018830;28;20151;-74
2021/03/01 09:51:35;;;;;;;15.50;8.93;;;21.70;45.10;;;;;;5018610;28;20022;-73
2021/03/01 09:54:06;;;;;;;12.48;10.18;;;22.90;43.00;;;;;;5010128;28;20030;-74
2021/03/01 09:56:39;;;;;;;12.35;10.18;;;23.20;42.00;;;;;;4997434;28;20037;-74
2021/03/01 09:59:05;;;;;;;19.92;10.13;;;24.10;40.60;;;;;;5003114;28;20026;-73
2021/03/01 10:01:31;;;;;;;12.25;9.77;;;24.10;40.30;;;;;;5011945;28;20030;-73
2021/03/01 10:03:57;;;;;;;17.17;9.68;;;24.90;39.30;;;;;;4998003;28;20054;-73
2021/03/01 10:06:35;;;;;;;16.63;10.10;;;24.60;38.90;;;;;;4998811;28;20104;-73
2021/03/01 10:09:09;;;;;;;9.73;8.45;;;24.00;39.40;;;;;;4999163;28;20093;-74
2021/03/01 10:11:36;;;;;;;12.07;9.55;;;23.60;40.40;;;;;;4999670;28;20030;-74
2021/03/01 10:14:11;;;;;;;12.27;9.75;;;24.10;40.60;;;;;;4998621;28;20073;-75
2021/03/01 10:16:41;;;;;;;12.27;9.50;;;24.50;39.80;;;;;;4999059;28;20040;-74
2021/03/01 10:19:16;;;;;;;10.45;8.85;;;25.10;37.70;;;;;;4998323;28;20489;-74
2021/03/01 10:21:42;;;;;;;15.18;9.13;;;25.30;38.70;;;;;;4999925;28;20026;-74
2021/03/01 10:24:11;;;;;;;11.40;10.13;;;25.00;38.70;;;;;;4999524;28;20508;-73
2021/03/01 10:26:56;;;;;;;10.63;9.13;;;24.80;38.30;;;;;;4993674;28;20027;-74
2021/03/01 10:29:29;;;;;;;14.98;8.63;;;25.40;37.30;;;;;;4996605;28;20041;-69
2021/03/01 10:31:55;;;;;;;13.50;8.23;;;25.50;39.70;;;;;;5008516;28;20049;-73
2021/03/01 10:34:37;;;;;;;13.95;7.40;;;25.40;37.70;;;;;;5009596;28;20034;-74
2021/03/01 10:37:09;;;;;;;9.18;6.93;;;25.50;37.10;;;;;;5010391;28;20030;-75
2021/03/01 10:39:36;;;;;;;;;;;24.00;39.00;;;;;;5012470;28;20023;-76
2021/03/01 10:42:11;;;;;;;12.20;8.43;;;25.20;37.70;;;;;;5011094;28;19913;-74
2021/03/01 10:44:38;;;;;;;7.93;6.80;;;25.50;36.30;;;;;;5011190;28;20034;-73
2021/03/01 10:47:24;;;;;;;8.85;6.80;;;25.50;35.90;;;;;;5011244;28;20018;-72
2021/03/01 10:49:54;;;;;;;8.20;7.40;;;24.20;38.60;;;;;;5005153;28;20026;-73
2021/03/01 10:52:22;;;;;;;8.05;6.10;;;25.10;37.60;;;;;;5002484;28;20030;-72
2021/03/01 10:54:48;;;;;;;6.28;5.78;;;26.40;35.70;;;;;;5000894;28;20029;-73
2021/03/01 10:57:14;;;;;;;6.10;5.60;;;27.70;34.60;;;;;;5001038;28;20030;-73
2021/03/01 10:59:40;;;;;;;6.60;5.97;;;28.20;33.10;;;;;;5007801;28;20396;-71
2021/03/01 11:02:07;;;;;;;5.00;4.50;;;29.40;31.60;;;;;;5018426;28;20397;-68
2021/03/01 11:04:33;;;;;;;6.75;5.25;;;27.80;31.30;;;;;;5016058;28;20030;-71
2021/03/01 11:06:59;;;;;;;5.82;5.32;;;28.10;31.70;;;;;;5018842;28;20525;-72
2021/03/01 11:09:25;;;;;;;5.90;5.30;;;28.30;33.30;;;;;;5000236;28;20019;-72
2021/03/01 11:11:52;;;;;;;6.07;4.82;;;30.20;31.00;;;;;;4999449;28;20031;-72
2021/03/01 11:14:19;;;;;;;4.57;4.20;;;31.30;30.10;;;;;;4998211;28;20463;-72
2021/03/01 11:16:45;;;;;;;5.35;4.95;;;30.80;29.30;;;;;;5000341;28;20169;-71
2021/03/01 11:19:13;;;;;;;5.88;4.80;;;29.90;28.90;;;;;;4999142;28;20184;-72
2021/03/01 11:21:40;;;;;;;5.07;4.68;;;29.20;29.50;;;;;;4998799;28;20050;-72
2021/03/01 11:24:07;;;;;;;6.68;5.10;;;28.60;29.80;;;;;;4998762;28;20030;-72
2021/03/01 11:26:33;;;;;;;7.13;4.60;;;28.00;31.20;;;;;;4998599;28;20023;-70
2021/03/01 11:28:59;;;;;;;7.72;5.00;;;29.50;29.80;;;;;;5002396;28;20101;-72
2021/03/01 11:31:26;;;;;;;4.90;4.50;;;27.80;29.90;;;;;;5018256;28;20018;-71
2021/03/01 11:33:52;;;;;;;5.35;4.70;;;28.80;29.70;;;;;;5018264;28;20018;-71
2021/03/01 11:36:18;;;;;;;4.38;4.03;;;29.50;28.90;;;;;;5019249;28;20037;-73
2021/03/01 11:38:44;;;;;;;5.30;4.35;;;29.70;28.00;;;;;;5019834;28;20026;-70
2021/03/01 11:41:14;;;;;;;6.25;5.00;;;29.30;29.60;;;;;;5019171;28;20036;-74
2021/03/01 11:43:42;;;;;;;4.50;4.20;;;29.90;28.10;;;;;;5019423;28;20032;-74
2021/03/01 11:46:08;;;;;;;6.88;4.68;;;30.60;28.00;;;;;;5018683;28;20018;-74
2021/03/01 11:48:34;;;;;;;6.22;3.75;;;30.70;28.10;;;;;;5020318;28;20029;-71
2021/03/01 11:51:00;;;;;;;5.15;4.03;;;31.00;26.70;;;;;;5007760;28;20026;-71
2021/03/01 11:53:25;;;;;;;4.10;3.80;;;30.20;26.90;;;;;;4998947;28;20081;-73
2021/03/01 11:55:52;;;;;;;4.78;4.38;;;29.30;27.60;;;;;;4999504;28;20046;-71
2021/03/01 11:58:17;;;;;;;5.20;3.83;;;28.80;27.00;;;;;;4997487;28;20033;-73
2021/03/01 12:00:43;;;;;;;4.20;3.88;;;28.70;28.10;;;;;;5014029;28;20061;-73
2021/03/01 12:03:10;;;;;;;6.15;3.70;;;28.70;27.10;;;;;;5016772;28;20022;-73
2021/03/01 12:05:39;;;;;;;5.47;3.63;;;27.70;28.90;;;;;;5017239;28;20156;-70
2021/03/01 12:08:05;;;;;;;5.05;3.55;;;27.80;29.20;;;;;;5017347;28;20473;-72
2021/03/01 12:10:32;;;;;;;4.10;3.63;;;29.40;27.80;;;;;;5017546;28;20028;-73
2021/03/01 12:12:57;;;;;;;4.40;4.00;;;30.30;27.10;;;;;;5017317;28;20025;-73
2021/03/01 12:15:23;;;;;;;4.30;3.90;;;30.50;27.10;;;;;;5017298;28;20033;-72
2021/03/01 12:17:49;;;;;;;4.50;4.10;;;30.90;26.80;;;;;;5017733;28;20034;-72
2021/03/01 12:20:15;;;;;;;5.80;3.90;;;30.30;27.00;;;;;;5017989;28;20026;-71
2021/03/01 12:22:41;;;;;;;5.18;3.65;;;30.70;27.10;;;;;;5016925;28;20029;-71
2021/03/01 12:25:07;;;;;;;7.00;3.40;;;30.90;26.60;;;;;;5017256;28;20026;-73
2021/03/01 12:27:33;;;;;;;3.90;3.60;;;30.50;26.70;;;;;;5019211;28;20479;-73
2021/03/01 12:29:58;;;;;;;4.13;3.60;;;28.30;28.10;;;;;;5018093;28;20046;-73
2021/03/01 12:32:24;;;;;;;5.38;3.30;;;29.10;28.80;;;;;;5017897;28;20107;-71
2021/03/01 12:34:50;;;;;;;3.50;3.10;;;30.30;28.10;;;;;;5016983;28;20049;-72
2021/03/01 12:37:16;;;;;;;3.75;3.45;;;29.20;27.80;;;;;;5017252;28;20037;-74
2021/03/01 12:39:42;;;;;;;4.03;3.65;;;29.50;28.30;;;;;;5017128;28;20029;-73
2021/03/01 12:42:08;;;;;;;4.05;3.70;;;29.10;28.10;;;;;;5017218;28;20114;-73